createdAt,value
2023-03-17T00:01:01.757Z,52.80
2023-03-17T00:03:38.542Z,61.70
2023-03-17T00:06:17.768Z,57.70
2023-03-17T00:08:51.616Z,56.80
2023-03-17T00:11:25.899Z,52.00
2023-03-17T00:13:59.452Z,55.00
2023-03-17T00:16:36.685Z,53.00
2023-03-17T00:19:12.583Z,51.60
2023-03-17T00:21:47.435Z,50.40
2023-03-17T00:24:21.649Z,53.50
2023-03-17T00:26:55.046Z,51.80
2023-03-17T00:29:28.906Z,47.00
2023-03-17T00:32:02.825Z,48.30
2023-03-17T00:34:36.558Z,46.60
2023-03-17T00:37:14.342Z,48.90
2023-03-17T00:39:48.038Z,52.20
2023-03-17T00:42:22.031Z,47.60
2023-03-17T00:44:55.918Z,46.30
2023-03-17T00:47:29.609Z,50.30
2023-03-17T00:50:03.504Z,46.50
2023-03-17T00:52:37.210Z,54.60
2023-03-17T00:55:12.466Z,49.70
2023-03-17T00:57:46.314Z,53.40
2023-03-17T01:00:26.784Z,47.00
2023-03-17T01:03:00.982Z,46.80
2023-03-17T01:05:34.539Z,48.90
2023-03-17T01:08:09.624Z,47.80
2023-03-17T01:10:43.877Z,49.80
2023-03-17T01:13:18.186Z,48.90
2023-03-17T01:15:53.139Z,53.90
2023-03-17T01:18:28.143Z,50.20
2023-03-17T01:21:02.051Z,51.10
2023-03-17T01:23:36.017Z,47.90
2023-03-17T01:26:10.222Z,50.70
2023-03-17T01:28:44.320Z,47.90
2023-03-17T01:31:17.645Z,48.80
2023-03-17T01:33:51.710Z,47.20
2023-03-17T01:36:25.644Z,50.70
2023-03-17T01:38:59.827Z,47.40
2023-03-17T01:41:36.924Z,47.30
2023-03-17T01:44:14.335Z,48.80
2023-03-17T01:46:49.842Z,46.20
2023-03-17T01:49:31.953Z,48.70
2023-03-17T01:52:10.294Z,46.90
2023-03-17T01:57:25.346Z,48.80
2023-03-17T02:00:06.342Z,51.70
2023-03-17T02:02:50.436Z,47.00
2023-03-17T02:05:26.687Z,43.10
2023-03-17T02:08:01.379Z,48.10
2023-03-17T02:10:35.475Z,43.20
2023-03-17T02:13:10.352Z,45.50
2023-03-17T02:15:47.640Z,48.70
2023-03-17T02:18:24.019Z,47.80
2023-03-17T02:21:39.395Z,48.60
2023-03-17T02:24:22.739Z,45.20
2023-03-17T02:26:59.800Z,52.00
2023-03-17T02:29:38.020Z,51.50
2023-03-17T02:32:12.161Z,49.30
2023-03-17T02:34:45.817Z,48.10
2023-03-17T02:37:20.679Z,55.90
2023-03-17T02:39:54.209Z,48.50
2023-03-17T02:42:28.631Z,48.30
2023-03-17T02:45:06.660Z,51.70
2023-03-17T02:47:41.716Z,50.90
2023-03-17T02:50:22.521Z,50.20
2023-03-17T02:52:56.389Z,47.60
2023-03-17T02:55:29.925Z,51.50
2023-03-17T02:58:04.100Z,48.70
2023-03-17T03:00:39.115Z,48.90
2023-03-17T03:03:12.984Z,48.90
2023-03-17T03:05:47.449Z,50.50
2023-03-17T03:08:21.074Z,53.20
2023-03-17T03:10:55.350Z,49.40
2023-03-17T03:13:29.229Z,46.10
2023-03-17T03:16:03.121Z,49.60
2023-03-17T03:18:37.469Z,50.50
2023-03-17T03:21:12.494Z,50.30
2023-03-17T03:23:46.165Z,50.00
2023-03-17T03:26:20.289Z,48.50
2023-03-17T03:28:54.255Z,50.80
2023-03-17T03:31:28.382Z,48.90
2023-03-17T03:34:02.043Z,52.60
2023-03-17T03:36:35.570Z,52.70
2023-03-17T03:39:10.744Z,51.70
2023-03-17T03:41:45.807Z,50.90
2023-03-17T03:44:19.581Z,50.80
2023-03-17T03:46:53.388Z,49.80
2023-03-17T03:49:27.166Z,48.60
2023-03-17T03:52:00.640Z,52.90
2023-03-17T03:54:34.404Z,51.70
2023-03-17T03:57:08.262Z,51.10
2023-03-17T03:59:42.156Z,50.70
2023-03-17T04:02:17.484Z,53.90
2023-03-17T04:04:52.103Z,59.60
2023-03-17T04:07:25.967Z,53.30
2023-03-17T04:10:00.204Z,57.20
2023-03-17T04:12:33.896Z,51.40
2023-03-17T04:15:09.427Z,54.70
2023-03-17T04:17:42.899Z,51.40
2023-03-17T04:20:18.083Z,53.40
2023-03-17T04:22:51.710Z,54.00
2023-03-17T04:25:25.229Z,53.60
2023-03-17T04:27:58.613Z,54.00
2023-03-17T04:30:32.841Z,54.80
2023-03-17T04:33:07.554Z,53.40
2023-03-17T04:35:43.016Z,52.50
2023-03-17T04:38:16.851Z,51.80
2023-03-17T04:40:51.368Z,52.80
2023-03-17T04:43:24.849Z,53.80
2023-03-17T04:45:58.647Z,52.00
2023-03-17T04:48:32.417Z,53.90
2023-03-17T04:51:06.510Z,52.80
2023-03-17T04:53:40.343Z,52.70
2023-03-17T04:56:14.474Z,50.90
2023-03-17T04:58:48.311Z,50.10
2023-03-17T05:01:21.940Z,49.50
2023-03-17T05:03:55.565Z,45.90
2023-03-17T05:06:29.530Z,50.00
2023-03-17T05:09:04.012Z,47.70
2023-03-17T05:11:38.241Z,48.10
2023-03-17T05:14:11.656Z,46.60
2023-03-17T05:16:48.452Z,47.60
2023-03-17T05:19:22.378Z,45.70
2023-03-17T05:21:56.483Z,47.30
2023-03-17T05:24:30.122Z,43.50
2023-03-17T05:27:04.166Z,46.90
2023-03-17T05:29:38.424Z,47.50
2023-03-17T05:32:12.809Z,46.70
2023-03-17T05:34:46.674Z,45.10
2023-03-17T05:37:20.689Z,38.90
2023-03-17T05:39:54.492Z,43.90
2023-03-17T05:42:28.854Z,41.60
2023-03-17T05:45:02.643Z,41.80
2023-03-17T05:47:36.504Z,41.20
2023-03-17T05:50:12.027Z,38.20
2023-03-17T05:52:45.945Z,34.90
2023-03-17T05:55:19.827Z,39.80
2023-03-17T05:57:53.265Z,35.10
2023-03-17T06:00:29.677Z,33.10
2023-03-17T06:03:04.162Z,35.00
2023-03-17T06:05:37.957Z,35.80
2023-03-17T06:08:11.536Z,32.40
2023-03-17T06:10:44.735Z,35.10
2023-03-17T06:13:18.505Z,30.70
2023-03-17T06:15:54.197Z,29.40
2023-03-17T06:18:27.751Z,31.00
2023-03-17T06:21:02.206Z,30.60
2023-03-17T06:23:37.240Z,35.10
2023-03-17T06:26:11.277Z,33.70
2023-03-17T06:28:44.824Z,32.40
2023-03-17T06:31:18.571Z,36.20
2023-03-17T06:33:52.468Z,31.80
2023-03-17T06:36:26.283Z,34.50
2023-03-17T06:39:00.128Z,29.90
2023-03-17T06:41:33.863Z,30.60
2023-03-17T06:44:07.775Z,32.20
2023-03-17T06:46:41.812Z,33.30
2023-03-17T06:49:16.366Z,32.60
2023-03-17T06:51:50.253Z,33.00
2023-03-17T06:54:25.865Z,32.90
2023-03-17T06:56:59.948Z,29.60
2023-03-17T06:59:34.064Z,30.50
2023-03-17T07:02:07.781Z,28.80
2023-03-17T07:04:42.120Z,30.40
2023-03-17T07:07:16.593Z,29.20
2023-03-17T07:09:50.219Z,26.70
2023-03-17T07:12:24.275Z,30.00
2023-03-17T07:14:58.527Z,26.80
2023-03-17T07:17:33.211Z,26.70
2023-03-17T07:20:07.764Z,27.50
2023-03-17T07:22:41.513Z,23.80
2023-03-17T07:25:15.615Z,30.00
2023-03-17T07:27:49.758Z,27.50
2023-03-17T07:30:23.798Z,29.10
2023-03-17T07:32:58.902Z,28.80
2023-03-17T07:35:34.305Z,25.60
2023-03-17T07:38:08.470Z,25.90
2023-03-17T07:40:42.558Z,28.10
2023-03-17T07:43:17.168Z,23.50
2023-03-17T07:45:51.340Z,26.10
2023-03-17T07:48:24.809Z,21.60
2023-03-17T07:50:59.111Z,24.80
2023-03-17T07:53:32.408Z,26.40
2023-03-17T07:56:06.308Z,22.20
2023-03-17T07:58:40.535Z,23.80
2023-03-17T08:01:14.304Z,23.10
2023-03-17T08:03:48.412Z,23.20
2023-03-17T08:06:22.429Z,16.90
2023-03-17T08:08:56.874Z,18.90
2023-03-17T08:11:30.169Z,25.60
2023-03-17T08:14:03.926Z,18.60
2023-03-17T08:16:38.003Z,18.00
2023-03-17T08:19:12.125Z,15.90
2023-03-17T08:21:46.161Z,17.50
2023-03-17T08:24:21.140Z,15.50
2023-03-17T08:26:54.667Z,13.60
2023-03-17T08:29:30.560Z,15.90
2023-03-17T08:32:04.640Z,15.60
2023-03-17T08:34:38.856Z,15.90
2023-03-17T08:37:12.897Z,15.70
2023-03-17T08:39:47.175Z,13.60
2023-03-17T08:42:20.842Z,16.20
2023-03-17T08:44:54.266Z,16.10
2023-03-17T08:47:28.697Z,13.20
2023-03-17T08:50:02.697Z,13.80
2023-03-17T08:52:36.648Z,13.10
2023-03-17T08:55:13.012Z,13.10
2023-03-17T08:57:47.018Z,13.00
2023-03-17T09:00:22.580Z,13.50
2023-03-17T09:02:57.343Z,13.80
2023-03-17T09:05:32.200Z,14.90
2023-03-17T09:08:05.709Z,11.10
2023-03-17T09:10:39.735Z,13.70
2023-03-17T09:13:13.357Z,10.10
2023-03-17T09:15:48.391Z,11.40
2023-03-17T09:18:22.736Z,11.40
2023-03-17T09:20:56.748Z,11.50
2023-03-17T09:23:30.997Z,10.80
2023-03-17T09:26:05.159Z,9.60
2023-03-17T09:28:38.737Z,10.70
2023-03-17T09:31:13.281Z,11.70
2023-03-17T09:33:47.688Z,10.20
2023-03-17T09:36:22.055Z,10.00
2023-03-17T09:38:56.207Z,11.10
2023-03-17T09:41:57.389Z,11.80
2023-03-17T09:44:46.843Z,9.10
2023-03-17T09:47:38.480Z,8.70
2023-03-17T09:50:17.904Z,10.00
2023-03-17T09:52:53.475Z,10.80
2023-03-17T09:55:31.496Z,9.10
2023-03-17T09:58:05.705Z,9.40
2023-03-17T10:00:39.878Z,10.40
2023-03-17T10:03:15.368Z,10.50
2023-03-17T10:05:49.536Z,8.30
2023-03-17T10:08:31.571Z,9.60
2023-03-17T10:11:15.702Z,9.80
2023-03-17T10:13:59.030Z,10.10
2023-03-17T10:16:42.096Z,8.50
2023-03-17T10:19:23.833Z,10.50
2023-03-17T10:22:03.037Z,11.00
2023-03-17T10:24:41.609Z,12.00
2023-03-17T10:27:17.496Z,9.80
2023-03-17T10:29:51.328Z,11.20
2023-03-17T10:32:24.895Z,8.00
2023-03-17T10:34:58.968Z,12.80
2023-03-17T10:37:36.997Z,13.00
2023-03-17T10:40:22.567Z,11.30
2023-03-17T10:43:04.067Z,12.80
2023-03-17T10:45:44.075Z,13.20
2023-03-17T10:48:21.199Z,13.30
2023-03-17T10:50:58.738Z,10.20
2023-03-17T10:53:43.657Z,11.00
2023-03-17T10:56:25.085Z,12.10
2023-03-17T10:58:59.265Z,13.70
2023-03-17T11:01:41.746Z,14.80
2023-03-17T11:04:31.165Z,13.40
2023-03-17T11:07:11.845Z,10.80
2023-03-17T11:09:51.004Z,10.20
2023-03-17T11:12:28.890Z,11.80
2023-03-17T11:15:08.966Z,9.90
2023-03-17T11:17:50.477Z,9.50
2023-03-17T11:20:42.802Z,9.20
2023-03-17T11:23:35.312Z,10.10
2023-03-17T11:26:19.622Z,10.50
2023-03-17T11:29:01.283Z,9.50
2023-03-17T11:31:40.350Z,11.60
2023-03-17T11:34:22.333Z,12.50
2023-03-17T11:37:07.302Z,11.80
2023-03-17T11:39:50.938Z,9.50
2023-03-17T11:42:29.559Z,9.20
2023-03-17T11:45:15.978Z,12.00
2023-03-17T11:48:10.989Z,14.30
2023-03-17T11:51:01.645Z,11.50
2023-03-17T11:53:51.242Z,11.80
2023-03-17T11:56:33.800Z,11.50
2023-03-17T11:59:14.931Z,11.20
2023-03-17T12:01:57.155Z,12.00
2023-03-17T12:04:36.516Z,13.00
2023-03-17T12:07:18.732Z,12.10
2023-03-17T12:10:01.333Z,12.70
2023-03-17T12:12:41.606Z,11.40
2023-03-17T12:15:21.461Z,12.60
2023-03-17T12:17:59.576Z,13.00
2023-03-17T12:20:41.456Z,11.60
2023-03-17T12:23:29.738Z,12.00
2023-03-17T12:26:11.120Z,11.50
2023-03-17T12:28:50.236Z,9.60
2023-03-17T12:31:27.689Z,13.90
2023-03-17T12:34:09.735Z,13.40
2023-03-17T12:36:44.274Z,11.80
2023-03-17T12:39:20.822Z,12.30
2023-03-17T12:42:15.969Z,12.50
2023-03-17T12:45:07.569Z,12.40
2023-03-17T12:47:55.392Z,12.60
2023-03-17T12:51:06.817Z,11.20
2023-03-17T12:53:42.948Z,16.90
2023-03-17T12:56:23.022Z,15.70
2023-03-17T12:59:01.549Z,11.20
2023-03-17T13:04:26.846Z,10.40
2023-03-17T13:07:12.905Z,12.30
2023-03-17T13:10:12.341Z,17.00
2023-03-17T13:13:14.886Z,12.30
2023-03-17T13:16:04.876Z,14.80
2023-03-17T13:19:07.782Z,11.90
2023-03-17T13:21:45.868Z,12.80
2023-03-17T13:24:42.228Z,11.40
2023-03-17T13:27:38.422Z,18.50
2023-03-17T13:30:42.564Z,14.10
2023-03-17T13:33:27.635Z,12.30
2023-03-17T13:36:19.437Z,13.40
2023-03-17T13:39:42.016Z,17.10
2023-03-17T13:42:27.830Z,13.20
2023-03-17T13:45:23.616Z,15.00
2023-03-17T13:48:27.882Z,13.20
2023-03-17T13:51:15.124Z,14.30
2023-03-17T13:53:54.250Z,13.70
2023-03-17T13:56:47.524Z,14.20
2023-03-17T13:59:21.982Z,14.70
2023-03-17T14:02:01.800Z,12.40
2023-03-17T14:04:48.204Z,12.50
2023-03-17T14:07:25.516Z,10.90
2023-03-17T14:10:05.493Z,12.00
2023-03-17T14:12:46.634Z,14.30
2023-03-17T14:15:28.360Z,13.40
2023-03-17T14:18:06.310Z,11.70
2023-03-17T14:20:40.306Z,16.70
2023-03-17T14:23:13.899Z,12.20
2023-03-17T14:25:47.978Z,16.40
2023-03-17T14:28:26.819Z,14.10
2023-03-17T14:33:38.854Z,13.50
2023-03-17T14:36:15.479Z,12.80
2023-03-17T14:38:53.202Z,11.40
2023-03-17T14:41:28.412Z,14.90
2023-03-17T14:44:03.572Z,14.60
2023-03-17T14:46:40.739Z,14.90
2023-03-17T14:49:20.017Z,14.50
2023-03-17T14:51:56.683Z,15.20
2023-03-17T14:54:33.843Z,15.50
2023-03-17T14:57:10.497Z,15.40
2023-03-17T14:59:45.361Z,14.90
2023-03-17T15:02:30.125Z,14.20
2023-03-17T15:05:08.410Z,16.60
2023-03-17T15:07:43.985Z,18.90
2023-03-17T15:10:21.277Z,21.20
2023-03-17T15:13:04.455Z,17.90
2023-03-17T15:15:41.902Z,20.90
2023-03-17T15:18:17.188Z,18.50
2023-03-17T15:20:51.873Z,16.20
2023-03-17T15:23:30.452Z,18.00
2023-03-17T15:26:10.525Z,15.80
2023-03-17T15:28:44.804Z,21.10
2023-03-17T15:31:18.425Z,18.20
2023-03-17T15:33:52.725Z,17.70
2023-03-17T15:36:32.792Z,19.30
2023-03-17T15:39:07.746Z,13.30
2023-03-17T15:41:41.961Z,14.80
2023-03-17T15:44:16.303Z,16.60
2023-03-17T15:46:50.176Z,16.30
2023-03-17T15:49:26.778Z,16.20
2023-03-17T15:52:00.424Z,16.10
2023-03-17T15:54:34.290Z,17.00
2023-03-17T15:57:08.527Z,16.90
2023-03-17T15:59:42.549Z,17.10
2023-03-17T16:02:34.408Z,15.10
2023-03-17T16:05:19.652Z,16.70
2023-03-17T16:07:53.955Z,17.00
2023-03-17T16:10:29.701Z,15.20
2023-03-17T16:13:03.857Z,14.10
2023-03-17T16:15:42.521Z,16.70
2023-03-17T16:20:54.241Z,13.40
2023-03-17T16:23:31.853Z,15.20
2023-03-17T16:26:16.517Z,14.00
2023-03-17T16:28:51.756Z,13.80
2023-03-17T16:31:29.562Z,17.20
2023-03-17T16:34:04.096Z,15.70
2023-03-17T16:36:38.367Z,17.80
2023-03-17T16:39:18.878Z,17.10
2023-03-17T16:41:53.821Z,15.30
2023-03-17T16:44:28.400Z,15.20
2023-03-17T16:47:02.490Z,14.30
2023-03-17T16:49:36.458Z,13.90
2023-03-17T16:52:11.590Z,16.60
2023-03-17T16:54:45.273Z,17.50
2023-03-17T16:57:20.207Z,14.60
2023-03-17T16:59:54.346Z,18.10
2023-03-17T17:02:30.298Z,19.30
2023-03-17T17:05:07.601Z,14.70
2023-03-17T17:07:42.160Z,12.60
2023-03-17T17:10:19.257Z,14.70
2023-03-17T17:12:53.972Z,13.50
2023-03-17T17:15:30.312Z,15.50
2023-03-17T17:18:09.260Z,17.30
2023-03-17T17:20:44.944Z,14.40
2023-03-17T17:23:25.255Z,14.10
2023-03-17T17:26:00.302Z,13.80
2023-03-17T17:28:36.074Z,13.40
2023-03-17T17:31:12.395Z,16.10
2023-03-17T17:33:48.642Z,15.40
2023-03-17T17:36:22.911Z,16.10
2023-03-17T17:39:00.261Z,13.40
2023-03-17T17:41:35.960Z,11.90
2023-03-17T17:44:13.306Z,16.20
2023-03-17T17:46:50.132Z,14.20
2023-03-17T17:49:32.473Z,17.40
2023-03-17T17:52:12.952Z,17.00
2023-03-17T17:54:57.951Z,16.10
2023-03-17T17:57:35.013Z,15.80
2023-03-17T18:00:19.671Z,16.50
2023-03-17T18:02:59.226Z,16.40
2023-03-17T18:05:35.099Z,14.90
2023-03-17T18:08:21.358Z,17.70
2023-03-17T18:10:58.433Z,13.30
2023-03-17T18:13:40.107Z,15.80
2023-03-17T18:16:19.756Z,15.70
2023-03-17T18:18:58.709Z,15.90
2023-03-17T18:21:37.523Z,14.50
2023-03-17T18:24:14.152Z,18.90
2023-03-17T18:26:52.520Z,13.70
2023-03-17T18:29:30.556Z,16.60
2023-03-17T18:32:09.179Z,15.20
2023-03-17T18:34:57.952Z,17.20
2023-03-17T18:37:44.865Z,16.60
2023-03-17T18:40:26.165Z,14.10
2023-03-17T18:43:02.670Z,15.80
2023-03-17T18:45:39.180Z,16.80
2023-03-17T18:48:19.307Z,16.90
2023-03-17T18:50:56.806Z,14.30
2023-03-17T18:53:37.784Z,15.20
2023-03-17T18:56:23.383Z,17.40
2023-03-17T18:59:05.014Z,16.10
2023-03-17T19:01:43.333Z,16.60
2023-03-17T19:04:21.075Z,18.20
2023-03-17T19:06:58.577Z,17.10
2023-03-17T19:09:35.833Z,16.60
2023-03-17T19:12:14.546Z,15.90
2023-03-17T19:14:55.876Z,17.20
2023-03-17T19:17:43.141Z,18.80
2023-03-17T19:20:23.070Z,18.00
2023-03-17T19:22:59.606Z,18.60
2023-03-17T19:25:37.968Z,15.60
2023-03-17T19:28:16.987Z,19.80
2023-03-17T19:30:57.034Z,16.40
2023-03-17T19:36:15.941Z,17.10
2023-03-17T19:38:53.909Z,19.10
2023-03-17T19:41:35.823Z,19.80
2023-03-17T19:44:16.674Z,18.80
2023-03-17T19:46:55.398Z,21.50
2023-03-17T19:49:32.150Z,17.20
2023-03-17T19:52:10.574Z,21.70
2023-03-17T19:54:50.001Z,18.00
2023-03-17T19:57:24.906Z,15.70
2023-03-17T20:00:03.922Z,19.00
2023-03-17T20:02:46.997Z,18.20
2023-03-17T20:05:28.110Z,20.40
2023-03-17T20:08:09.890Z,20.00
2023-03-17T20:10:49.029Z,24.40
2023-03-17T20:13:25.906Z,25.90
2023-03-17T20:16:02.774Z,19.80
2023-03-17T20:18:43.925Z,18.20
2023-03-17T20:21:20.191Z,20.80
2023-03-17T20:23:57.827Z,21.70
2023-03-17T20:26:35.063Z,23.30
2023-03-17T20:29:11.667Z,21.60
2023-03-17T20:31:49.399Z,21.40
2023-03-17T20:34:26.811Z,22.90
2023-03-17T20:37:11.272Z,23.10
2023-03-17T20:39:48.236Z,20.80
2023-03-17T20:42:26.956Z,22.60
2023-03-17T20:45:05.132Z,19.50
2023-03-17T20:47:40.597Z,26.50
2023-03-17T20:50:19.115Z,20.60
2023-03-17T20:52:56.276Z,24.60
2023-03-17T20:55:33.823Z,21.70
2023-03-17T20:58:16.341Z,18.60
2023-03-17T21:00:55.287Z,21.40
2023-03-17T21:03:42.030Z,19.80
2023-03-17T21:06:26.161Z,23.00
2023-03-17T21:09:02.819Z,21.70
2023-03-17T21:11:40.999Z,21.90
2023-03-17T21:14:17.800Z,18.90
2023-03-17T21:16:53.076Z,23.10
2023-03-17T21:19:32.308Z,19.90
2023-03-17T21:22:09.731Z,21.60
2023-03-17T21:24:43.637Z,18.30
2023-03-17T21:27:18.741Z,18.70
2023-03-17T21:29:54.511Z,20.70
2023-03-17T21:32:33.473Z,19.70
2023-03-17T21:35:11.716Z,19.20
2023-03-17T21:37:45.858Z,21.40
2023-03-17T21:40:21.647Z,19.20
2023-03-17T21:42:56.574Z,20.50
2023-03-17T21:45:31.613Z,21.60
2023-03-17T21:48:05.603Z,19.20
2023-03-17T21:50:40.112Z,20.70
2023-03-17T21:53:17.041Z,19.80
2023-03-17T21:55:50.992Z,22.40
2023-03-17T21:58:24.789Z,19.30
2023-03-17T22:01:01.029Z,18.00
2023-03-17T22:03:35.147Z,18.00
2023-03-17T22:06:10.143Z,21.50
2023-03-17T22:08:44.674Z,18.20
2023-03-17T22:11:20.559Z,18.00
2023-03-17T22:13:54.121Z,20.60
2023-03-17T22:16:28.170Z,16.50
2023-03-17T22:19:02.278Z,19.10
2023-03-17T22:21:35.583Z,19.60
2023-03-17T22:24:09.827Z,18.30
2023-03-17T22:26:43.581Z,21.10
2023-03-17T22:29:17.316Z,20.00
2023-03-17T22:31:51.312Z,20.10
2023-03-17T22:34:24.999Z,19.20
2023-03-17T22:36:58.791Z,16.30
2023-03-17T22:39:32.648Z,18.80
2023-03-17T22:42:06.764Z,18.30
2023-03-17T22:44:40.710Z,17.90
2023-03-17T22:47:14.708Z,21.60
2023-03-17T22:49:48.402Z,18.30
2023-03-17T22:52:22.165Z,19.80
2023-03-17T22:54:56.266Z,17.20
2023-03-17T22:57:30.070Z,17.40
2023-03-17T23:00:04.324Z,15.60
2023-03-17T23:02:37.993Z,19.20
2023-03-17T23:05:13.695Z,18.40
2023-03-17T23:07:50.836Z,17.00
2023-03-17T23:10:25.590Z,17.30
2023-03-17T23:12:59.757Z,18.40
2023-03-17T23:15:34.671Z,15.80
2023-03-17T23:18:09.702Z,13.80
2023-03-17T23:20:43.956Z,17.20
2023-03-17T23:23:18.549Z,20.10
2023-03-17T23:25:52.325Z,17.80
2023-03-17T23:28:25.852Z,18.30
2023-03-17T23:30:59.936Z,16.60
2023-03-17T23:33:34.382Z,17.90
2023-03-17T23:36:09.502Z,15.60
2023-03-17T23:38:42.939Z,15.70
2023-03-17T23:41:17.790Z,15.00
2023-03-17T23:43:51.645Z,15.60
2023-03-17T23:46:25.071Z,14.80
2023-03-17T23:48:58.812Z,13.90
2023-03-17T23:51:32.512Z,15.00
2023-03-17T23:54:08.049Z,17.30
2023-03-17T23:56:41.966Z,15.70
2023-03-17T23:59:15.884Z,13.60
